Accueil
METAR-TAF:

METAR-TAF

Aéroports :

Col de Resia, Italie

latitude: 46-50N, longitude: 010-30E, altitude: 1800 m

Observation

Le bulletin a été fait il y a 30 minutes, à 00:55 UTC
Vent 9 kt de sud
Température 7°C
Humidité 100%
Pression 1020 hPa
Visibilité 10 km ou plus
Nuages épars à une hauteur de 1200 ft
Nuages fragmentés à une hauteur de 2500 ft

METAR: LIVE 210055Z 18009KT 9999 SCT012 BKN025 07/07 Q1020 RMK OVC VIS MIN 9999

Heure: 03:25 (01:25 UTC)


TAF: absent

Observations et prévisions météorologiques de plus de 4000 aéroports (messages METAR et TAF).

Les stations disponibles sont représentées par des disques jaunes et rouges sur la carte.

Passer la souris dessus pour voir le nom de la station.

Cliquer dessus pour voir les observations et prévisions météorologiques.

Pour changer de carte: cliquez sur les boutons verts avec une croix noire pour zoomer, sur le bouton vert avec un tiret pour effectuer un zoom arrière, ou sur les flèches vertes pour les cartes adjacentes.


METAR-TAF: